Time;durP1;ratioP1;P1;durP2;ratioP2;P2;SDS_P1;SDS_P2;PMS_P1;PMS_P2;Temp;Humidity;BMP_temperature;BMP_pressure;BME280_temperature;BME280_humidity;BME280_pressure;Samples;Min_cycle;Max_cycle;Signal;HPM_P1;HPM_P2
2022/03/12 00:01:52;;;;;;;;;;;;;;;18.07;43.29;101261.38;4953420;29;19942;-80
2022/03/12 00:04:17;;;;;;;;;;;;;;;18.06;43.26;101258.75;4970611;29;19942;-79
2022/03/12 00:06:50;;;;;;;;;;;;;;;18.06;42.98;101263.97;4953147;29;19921;-79
2022/03/12 00:09:16;;;;;;;;;;;;;;;18.06;43.21;101261.38;4969993;29;19969;-79
2022/03/12 00:11:55;;;;;;;;;;;;;;;18.06;42.98;101263.97;4951465;29;19970;-79
2022/03/12 00:14:22;;;;;;;;;;;;;;;18.06;42.62;101258.75;4969995;29;19954;-79
2022/03/12 00:16:49;;;;;;;;;;;;;;;18.05;42.90;101268.31;4952307;29;20377;-79
2022/03/12 00:19:14;;;;;;;;;;;;;;;18.05;43.14;101264.81;4952882;29;19919;-79
2022/03/12 00:21:43;;;;;;;;;;;;;;;18.05;42.72;101267.44;4971672;29;19938;-79
2022/03/12 00:24:12;;;;;;;;;;;;;;;18.05;42.74;101267.44;4971713;29;19915;-80
2022/03/12 00:26:40;;;;;;;;;;;;;;;18.05;42.61;101264.81;4952676;29;19918;-79
2022/03/12 00:29:14;;;;;;;;;;;;;;;18.05;43.02;101270.03;4972354;29;20370;-80
2022/03/12 00:31:39;;;;;;;;;;;;;;;18.03;42.65;101264.84;4957740;29;19922;-79
2022/03/12 00:34:05;;;;;;;;;;;;;;;18.04;43.04;101278.72;4956615;29;19915;-79
2022/03/12 00:36:30;;;;;;;;;;;;;;;18.03;42.73;101276.97;4953252;29;19925;-80
2022/03/12 00:38:55;;;;;;;;;;;;;;;18.03;42.95;101280.47;4972341;29;19974;-80
2022/03/12 00:41:22;;;;;;;;;;;;;;;18.03;42.71;101287.41;4970813;29;19919;-79
2022/03/12 00:43:48;;;;;;;;;;;;;;;18.04;42.84;101286.53;4973241;29;19929;-80
2022/03/12 00:46:13;;;;;;;;;;;;;;;18.03;43.03;101284.78;4974173;28;19915;-80
2022/03/12 00:48:39;;;;;;;;;;;;;;;18.02;42.74;101277.88;4956956;29;19918;-80
2022/03/12 00:51:05;;;;;;;;;;;;;;;18.02;42.35;101281.34;4957191;29;19915;-80
2022/03/12 00:53:34;;;;;;;;;;;;;;;18.02;42.55;101283.94;4980140;28;19914;-81
2022/03/12 00:56:01;;;;;;;;;;;;;;;18.02;42.82;101286.53;4976337;28;19918;-79
2022/03/12 00:58:27;;;;;;;;;;;;;;;18.02;42.13;101283.94;4955300;29;19925;-79
2022/03/12 01:00:52;;;;;;;;;;;;;;;18.02;42.54;101285.69;4955265;29;19915;-79
2022/03/12 01:03:17;;;;;;;;;;;;;;;18.02;42.80;101290.88;4955601;29;19993;-80
2022/03/12 01:05:53;;;;;;;;;;;;;;;18.01;42.51;101297.84;4973215;28;20285;-80
2022/03/12 01:08:19;;;;;;;;;;;;;;;18.02;42.35;101296.09;4956221;29;19969;-79
2022/03/12 01:10:46;;;;;;;;;;;;;;;18.01;42.43;101305.66;4974042;29;19918;-80
2022/03/12 01:13:11;;;;;;;;;;;;;;;18.01;42.89;101304.81;4955909;29;19928;-80
2022/03/12 01:15:39;;;;;;;;;;;;;;;18.01;42.65;101302.19;4954292;29;19969;-81
2022/03/12 01:18:09;;;;;;;;;;;;;;;18.01;42.35;101310.00;4954871;28;19919;-81
2022/03/12 01:20:34;;;;;;;;;;;;;;;18.00;42.59;101309.13;4956282;29;19914;-81
2022/03/12 01:23:00;;;;;;;;;;;;;;;18.00;42.89;101308.25;4954962;29;19922;-80
2022/03/12 01:25:27;;;;;;;;;;;;;;;18.00;42.52;101303.91;4980503;29;19942;-80
2022/03/12 01:27:54;;;;;;;;;;;;;;;17.99;42.67;101310.00;4963273;29;19918;-81
2022/03/12 01:30:26;;;;;;;;;;;;;;;17.98;42.42;101313.47;4961936;28;19915;-81
2022/03/12 01:32:52;;;;;;;;;;;;;;;18.00;42.29;101313.47;4976300;29;19915;-81
2022/03/12 01:35:18;;;;;;;;;;;;;;;17.99;42.73;101314.34;4981157;29;19946;-81
2022/03/12 01:37:43;;;;;;;;;;;;;;;17.99;42.63;101316.97;4963636;28;19903;-81
2022/03/12 01:40:11;;;;;;;;;;;;;;;17.99;42.56;101325.63;4961365;29;19918;-81
2022/03/12 01:42:37;;;;;;;;;;;;;;;17.99;42.43;101320.41;4958523;29;19903;-81
2022/03/12 01:45:05;;;;;;;;;;;;;;;17.98;42.67;101323.88;4975760;28;19969;-81
2022/03/12 01:47:30;;;;;;;;;;;;;;;17.97;42.89;101311.75;4958483;29;19918;-80
2022/03/12 01:49:56;;;;;;;;;;;;;;;17.97;42.55;101311.75;4958492;29;20280;-80
2022/03/12 01:52:21;;;;;;;;;;;;;;;17.97;42.65;101311.75;4973983;29;19918;-81
2022/03/12 01:54:49;;;;;;;;;;;;;;;17.97;42.72;101310.88;4974556;28;19918;-80
2022/03/12 01:57:15;;;;;;;;;;;;;;;17.96;42.68;101302.19;4974782;29;19925;-81
2022/03/12 01:59:40;;;;;;;;;;;;;;;17.95;42.71;101300.47;4973958;28;19922;-81
2022/03/12 02:02:12;;;;;;;;;;;;;;;17.95;42.83;101297.88;4956843;29;19914;-80
2022/03/12 02:04:37;;;;;;;;;;;;;;;17.96;42.61;101304.78;4957059;29;20007;-81
2022/03/12 02:07:04;;;;;;;;;;;;;;;17.96;42.65;101311.75;4955948;29;19919;-81
2022/03/12 02:09:31;;;;;;;;;;;;;;;17.95;42.55;101310.03;4973050;28;19914;-80
2022/03/12 02:11:56;;;;;;;;;;;;;;;17.95;42.69;101299.59;4956277;28;19997;-81
2022/03/12 02:14:23;;;;;;;;;;;;;;;17.95;42.87;101297.00;4972074;29;19982;-81
2022/03/12 02:16:52;;;;;;;;;;;;;;;17.94;42.76;101296.13;4973833;28;19983;-82
2022/03/12 02:19:17;;;;;;;;;;;;;;;17.94;42.83;101301.31;4971856;28;20433;-82
2022/03/12 02:21:50;;;;;;;;;;;;;;;17.94;42.54;101298.72;4954812;29;19914;-82
2022/03/12 02:24:17;;;;;;;;;;;;;;;17.94;42.72;101308.28;4954712;29;19914;-82
2022/03/12 02:26:43;;;;;;;;;;;;;;;17.93;42.78;101310.03;4954795;29;19925;-82
2022/03/12 02:29:19;;;;;;;;;;;;;;;17.94;42.68;101316.09;4971688;29;19969;-81
2022/03/12 02:31:49;;;;;;;;;;;;;;;17.93;42.56;101310.03;4971830;28;19993;-82
2022/03/12 02:34:21;;;;;;;;;;;;;;;17.94;42.62;101303.06;4977435;28;19954;-81
2022/03/12 02:36:49;;;;;;;;;;;;;;;17.94;42.84;101305.66;4960210;29;19941;-81
2022/03/12 02:39:15;;;;;;;;;;;;;;;17.92;42.83;101297.88;4960462;29;19965;-81
2022/03/12 02:41:40;;;;;;;;;;;;;;;17.93;42.75;101298.75;4975312;29;19906;-80
2022/03/12 02:44:06;;;;;;;;;;;;;;;17.92;43.04;101304.81;4960216;29;19925;-80
2022/03/12 02:46:37;;;;;;;;;;;;;;;17.92;42.61;101308.31;4976239;28;19949;-81
2022/03/12 02:49:02;;;;;;;;;;;;;;;17.92;42.76;101307.41;4958850;29;19990;-81
2022/03/12 02:51:27;;;;;;;;;;;;;;;17.92;42.72;101316.13;4976063;28;19918;-81
2022/03/12 02:53:56;;;;;;;;;;;;;;;17.91;42.81;101319.56;4975649;29;19922;-81
2022/03/12 02:56:24;;;;;;;;;;;;;;;17.91;42.74;101318.72;4976281;28;19978;-81
2022/03/12 02:58:50;;;;;;;;;;;;;;;17.91;42.87;101316.09;4977633;29;19966;-81
2022/03/12 03:01:16;;;;;;;;;;;;;;;17.90;42.66;101323.06;4973328;29;19925;-81
2022/03/12 03:03:42;;;;;;;;;;;;;;;17.91;42.63;101332.59;4974460;29;19915;-81
2022/03/12 03:06:09;;;;;;;;;;;;;;;17.91;42.86;101326.53;4974490;28;19949;-80
2022/03/12 03:08:37;;;;;;;;;;;;;;;17.90;42.78;101325.66;4957886;29;19922;-80
2022/03/12 03:11:08;;;;;;;;;;;;;;;17.89;42.77;101319.56;4958665;29;20006;-80
2022/03/12 03:13:37;;;;;;;;;;;;;;;17.89;43.11;101319.56;4957747;29;19923;-81
2022/03/12 03:16:22;;;;;;;;;;;;;;;17.89;42.95;101321.31;4974946;28;19918;-80
2022/03/12 03:18:52;;;;;;;;;;;;;;;17.88;43.13;101317.00;4973248;29;19970;-80
2022/03/12 03:21:19;;;;;;;;;;;;;;;17.89;42.77;101314.34;4955887;29;19918;-80
2022/03/12 03:24:00;;;;;;;;;;;;;;;17.88;42.99;101322.19;4971231;28;19991;-80
2022/03/12 03:26:38;;;;;;;;;;;;;;;17.88;42.72;101332.63;4948837;29;19950;-80
2022/03/12 03:29:05;;;;;;;;;;;;;;;17.87;42.90;101331.72;4948232;28;19914;-80
2022/03/12 03:31:30;;;;;;;;;;;;;;;17.87;42.84;101334.31;4947977;29;19919;-80
2022/03/12 03:33:55;;;;;;;;;;;;;;;17.87;42.91;101328.25;4963691;28;20396;-80
2022/03/12 03:36:21;;;;;;;;;;;;;;;17.86;43.08;101343.03;4946676;29;20378;-80
2022/03/12 03:38:46;;;;;;;;;;;;;;;17.86;42.72;101344.78;4964710;29;20385;-80
2022/03/12 03:41:11;;;;;;;;;;;;;;;17.86;42.75;101342.16;4963835;29;20412;-80
2022/03/12 03:43:37;;;;;;;;;;;;;;;17.85;42.91;101343.88;4963892;28;20365;-80
2022/03/12 03:46:02;;;;;;;;;;;;;;;17.85;42.92;101353.44;4947145;29;20354;-80
2022/03/12 03:48:27;;;;;;;;;;;;;;;17.84;43.15;101344.75;4946567;29;19918;-80
2022/03/12 03:50:53;;;;;;;;;;;;;;;17.85;43.11;101350.81;4963864;29;19921;-80
2022/03/12 03:53:24;;;;;;;;;;;;;;;17.85;43.01;101348.22;4962871;29;19915;-80
2022/03/12 03:55:49;;;;;;;;;;;;;;;17.85;42.84;101350.81;4945976;29;19914;-80
2022/03/12 03:58:15;;;;;;;;;;;;;;;17.84;42.84;101343.91;4945481;29;19919;-80
2022/03/12 04:00:50;;;;;;;;;;;;;;;17.85;42.90;101350.81;4962244;28;19919;-80
2022/03/12 04:03:16;;;;;;;;;;;;;;;17.84;43.22;101347.38;4944612;29;19914;-80
2022/03/12 04:05:41;;;;;;;;;;;;;;;17.84;43.06;101349.97;4945389;29;19918;-81
2022/03/12 04:08:07;;;;;;;;;;;;;;;17.84;43.16;101359.53;4963813;29;19918;-80
2022/03/12 04:10:33;;;;;;;;;;;;;;;17.83;42.96;101360.38;4963244;29;19914;-80
2022/03/12 04:12:59;;;;;;;;;;;;;;;17.83;43.03;101371.69;4945237;28;19934;-80
2022/03/12 04:15:25;;;;;;;;;;;;;;;17.83;43.23;101373.41;4953776;29;19921;-81
2022/03/12 04:17:51;;;;;;;;;;;;;;;17.82;43.15;101369.94;4969846;29;19926;-81
2022/03/12 04:20:18;;;;;;;;;;;;;;;17.84;43.06;101372.53;4947154;29;20259;-81
2022/03/12 04:22:43;;;;;;;;;;;;;;;17.82;43.29;101364.72;4946472;29;19942;-80
2022/03/12 04:25:12;;;;;;;;;;;;;;;17.83;43.24;101373.41;4946157;29;19918;-80
2022/03/12 04:27:44;;;;;;;;;;;;;;;17.82;43.21;101380.34;4963159;29;19918;-80
2022/03/12 04:30:13;;;;;;;;;;;;;;;17.82;43.20;101379.47;4945840;29;19915;-80
2022/03/12 04:32:39;;;;;;;;;;;;;;;17.82;43.23;101380.34;4945947;29;19990;-80
2022/03/12 04:35:05;;;;;;;;;;;;;;;17.81;43.09;101381.19;4946149;29;20393;-80
2022/03/12 04:37:30;;;;;;;;;;;;;;;17.80;43.29;101382.03;4962894;29;19918;-80
2022/03/12 04:39:56;;;;;;;;;;;;;;;17.81;43.20;101381.19;4945586;28;20011;-80
2022/03/12 04:42:22;;;;;;;;;;;;;;;17.81;43.16;101386.41;4962412;29;19958;-80
2022/03/12 04:44:47;;;;;;;;;;;;;;;17.81;43.51;101388.13;4945092;29;20492;-80
2022/03/12 04:47:13;;;;;;;;;;;;;;;17.82;43.47;101392.50;4961972;28;19981;-80
2022/03/12 04:49:38;;;;;;;;;;;;;;;17.81;43.20;101382.91;4945131;29;19926;-80
2022/03/12 04:52:04;;;;;;;;;;;;;;;17.80;43.33;101387.25;4945003;29;19919;-80
2022/03/12 04:54:33;;;;;;;;;;;;;;;17.81;43.46;101381.19;4943556;29;19919;-80
2022/03/12 04:56:58;;;;;;;;;;;;;;;17.81;43.37;101394.22;4943530;29;19926;-80
2022/03/12 04:59:23;;;;;;;;;;;;;;;17.81;43.40;101388.13;4943333;29;20292;-80
2022/03/12 05:01:49;;;;;;;;;;;;;;;17.82;43.33;101387.28;4943420;29;19925;-80
2022/03/12 05:04:14;;;;;;;;;;;;;;;17.80;43.19;101379.44;4942815;29;19918;-80
2022/03/12 05:06:39;;;;;;;;;;;;;;;17.80;43.37;101391.59;4943087;29;20365;-81
2022/03/12 05:09:05;;;;;;;;;;;;;;;17.80;43.25;101389.84;4942634;28;20378;-81
2022/03/12 05:11:34;;;;;;;;;;;;;;;17.80;43.14;101392.47;4958695;29;20288;-80
2022/03/12 05:13:59;;;;;;;;;;;;;;;17.80;43.50;101392.47;4962059;28;19922;-80
2022/03/12 05:16:28;;;;;;;;;;;;;;;17.80;43.39;101402.00;4946337;29;19914;-80
2022/03/12 05:18:56;;;;;;;;;;;;;;;17.79;43.51;101402.88;4945245;29;19926;-81
2022/03/12 05:21:21;;;;;;;;;;;;;;;17.79;43.30;101408.06;4946550;29;19914;-81
2022/03/12 05:23:46;;;;;;;;;;;;;;;17.78;43.46;101407.22;4946819;29;19925;-81
2022/03/12 05:26:11;;;;;;;;;;;;;;;17.77;43.46;101408.09;4946441;29;19975;-81
2022/03/12 05:28:39;;;;;;;;;;;;;;;17.77;43.33;101413.31;4955457;29;19915;-81
2022/03/12 05:31:05;;;;;;;;;;;;;;;17.77;43.45;101425.44;4960333;29;19910;-81
2022/03/12 05:33:30;;;;;;;;;;;;;;;17.76;43.35;101419.38;4976793;28;19914;-81
2022/03/12 05:35:56;;;;;;;;;;;;;;;17.77;43.44;101417.63;4957894;29;19918;-81
2022/03/12 05:38:22;;;;;;;;;;;;;;;17.76;43.43;101424.56;4959877;28;19929;-81
2022/03/12 05:40:48;;;;;;;;;;;;;;;17.76;43.47;101427.16;4962426;29;19918;-81
2022/03/12 05:43:15;;;;;;;;;;;;;;;17.76;43.36;101429.78;4958461;29;19923;-81
2022/03/12 05:45:40;;;;;;;;;;;;;;;17.76;43.37;101437.59;4953949;29;19914;-80
2022/03/12 05:48:08;;;;;;;;;;;;;;;17.75;43.15;101433.25;4953306;29;19942;-81
2022/03/12 05:50:33;;;;;;;;;;;;;;;17.76;43.47;101428.91;4954511;29;19982;-81
2022/03/12 05:52:59;;;;;;;;;;;;;;;17.75;43.51;101430.66;4955390;29;19918;-81
2022/03/12 05:55:24;;;;;;;;;;;;;;;17.75;43.50;101437.59;4959389;29;20010;-81
2022/03/12 05:57:49;;;;;;;;;;;;;;;17.75;43.46;101437.59;4960094;29;19946;-81
2022/03/12 06:00:15;;;;;;;;;;;;;;;17.75;43.66;101440.22;4956463;29;19926;-81
2022/03/12 06:02:51;;;;;;;;;;;;;;;17.75;43.42;101432.41;4952615;29;19919;-80
2022/03/12 06:05:20;;;;;;;;;;;;;;;17.75;43.36;101443.69;4951755;28;20369;-80
2022/03/12 06:07:46;;;;;;;;;;;;;;;17.74;43.57;101447.13;4952170;29;19926;-80
2022/03/12 06:10:37;;;;;;;;;;;;;;;17.76;43.42;101441.94;4968651;29;19915;-80
2022/03/12 06:13:03;;;;;;;;;;;;;;;17.77;43.51;101448.84;4952014;29;20013;-80
2022/03/12 06:15:29;;;;;;;;;;;;;;;17.76;43.58;101453.22;4967455;28;20404;-81
2022/03/12 06:17:54;;;;;;;;;;;;;;;17.78;43.39;101456.69;4951087;29;19927;-81
2022/03/12 06:20:20;;;;;;;;;;;;;;;17.80;43.23;101457.53;4949199;29;19921;-81
2022/03/12 06:22:46;;;;;;;;;;;;;;;17.83;43.44;101459.31;4966445;29;19919;-81
2022/03/12 06:25:12;;;;;;;;;;;;;;;17.85;43.38;101460.19;4948255;29;19920;-80
2022/03/12 06:27:39;;;;;;;;;;;;;;;17.86;43.38;101467.13;4949084;29;19919;-81
2022/03/12 06:30:06;;;;;;;;;;;;;;;17.85;43.29;101471.44;4949259;29;19914;-80
2022/03/12 06:32:32;;;;;;;;;;;;;;;17.86;43.33;101480.16;4948756;28;20001;-81
2022/03/12 06:34:57;;;;;;;;;;;;;;;17.89;43.02;101477.53;4948640;29;20034;-80
2022/03/12 06:37:23;;;;;;;;;;;;;;;17.91;43.12;101474.94;4949978;29;19929;-80
2022/03/12 06:39:48;;;;;;;;;;;;;;;17.93;43.00;101471.47;4949639;29;20013;-80
2022/03/12 06:42:13;;;;;;;;;;;;;;;17.94;43.08;101474.94;4948153;29;20013;-80
2022/03/12 06:44:39;;;;;;;;;;;;;;;17.97;42.95;101467.13;4963949;29;19919;-80
2022/03/12 06:47:08;;;;;;;;;;;;;;;18.00;43.03;101472.31;4946747;29;19914;-81
2022/03/12 06:49:33;;;;;;;;;;;;;;;18.02;42.81;101479.25;4946919;29;19910;-80
2022/03/12 06:51:59;;;;;;;;;;;;;;;18.04;42.91;101474.91;4963277;29;19919;-80
2022/03/12 06:54:25;;;;;;;;;;;;;;;18.06;42.78;101487.94;4947930;29;19919;-80
2022/03/12 06:56:51;;;;;;;;;;;;;;;18.05;42.96;101494.00;4946466;29;19923;-80
2022/03/12 06:59:16;;;;;;;;;;;;;;;18.03;42.86;101495.75;4964314;29;19921;-80
2022/03/12 07:01:41;;;;;;;;;;;;;;;18.01;42.96;101500.13;4965692;29;20349;-81
2022/03/12 07:06:42;;;;;;;;;;;;;;;18.06;43.14;101504.44;5029427;23;19926;-79
2022/03/12 07:09:07;;;;;;;;;;;;;;;18.10;43.26;101513.13;4975983;28;20010;-81
2022/03/12 07:11:33;;;;;;;;;;;;;;;18.17;43.86;101513.97;4981071;28;19933;-84
2022/03/12 07:13:59;;;;;;;;;;;;;;;18.23;43.96;101512.22;5675678;23;19905;-81
2022/03/12 07:39:41;;;;;;;;;;;;;;;18.48;43.16;101543.44;5739485;23;19910;-84
2022/03/12 07:42:06;;;;;;;;;;;;;;;18.49;43.27;101547.81;4982226;28;19936;-83
2022/03/12 07:49:55;;;;;;;;;;;;;;;18.61;43.10;101549.50;5013483;23;19915;-85
2022/03/12 07:52:20;;;;;;;;;;;;;;;18.65;43.21;101552.09;4982063;28;19918;-83
2022/03/12 07:54:46;;;;;;;;;;;;;;;18.67;43.13;101552.97;4982062;28;19921;-84
2022/03/12 07:57:12;;;;;;;;;;;;;;;18.69;43.14;101551.22;4998580;28;19906;-83
2022/03/12 07:59:37;;;;;;;;;;;;;;;18.73;43.00;101546.88;4981323;28;19914;-82
2022/03/12 08:02:03;;;;;;;;;;;;;;;18.75;43.09;101549.47;4981715;28;19898;-83
2022/03/12 08:04:32;;;;;;;;;;;;;;;18.76;43.05;101561.63;4983191;28;19973;-83
2022/03/12 08:19:54;;;;;;;;;;;;;;;19.29;41.98;101571.00;5937868;23;21104;-81
2022/03/12 08:22:20;;;;;;;;;;;;;;;19.36;42.05;101577.97;4962374;28;19946;-81
2022/03/12 08:24:46;;;;;;;;;;;;;;;19.39;42.09;101596.19;5300356;23;19914;-81
2022/03/12 08:27:14;;;;;;;;;;;;;;;19.42;41.92;101588.34;4963052;29;19907;-81
2022/03/12 08:32:15;;;;;;;;;;;;;;;19.45;42.05;101593.56;5615453;23;19922;-81
2022/03/12 08:34:41;;;;;;;;;;;;;;;19.48;41.98;101595.28;4981714;28;20011;-82
2022/03/12 08:47:19;;;;;;;;;;;;;;;19.36;42.37;101606.66;5791041;23;19930;-81
2022/03/12 08:49:44;;;;;;;;;;;;;;;19.40;42.51;101605.78;5400462;23;19927;-81
2022/03/12 09:36:04;;;;;;;;;;;;;;;19.18;43.46;101635.44;6000126;23;19917;-79
2022/03/12 09:48:50;;;;;;;;;;;;;;;19.23;43.54;101621.50;5050423;23;19911;-80
2022/03/12 10:33:33;;;;;;;;;;;;;;;19.13;43.93;101665.91;5099357;23;19910;-81
2022/03/12 10:36:12;;;;;;;;;;;;;;;19.22;44.30;101663.25;5287966;23;19927;-80
2022/03/12 10:38:42;;;;;;;;;;;;;;;19.37;44.56;101662.34;4942978;29;19918;-79
2022/03/12 10:41:08;;;;;;;;;;;;;;;19.37;44.20;101663.19;4943514;29;19946;-80
2022/03/12 10:43:54;;;;;;;;;;;;;;;19.44;43.79;101671.88;4925950;29;19926;-79
2022/03/12 10:46:27;;;;;;;;;;;;;;;19.45;44.90;101669.25;4950237;29;19922;-81
2022/03/12 10:49:14;;;;;;;;;;;;;;;19.36;49.08;101671.91;4954197;28;20428;-82
2022/03/12 10:52:02;;;;;;;;;;;;;;;18.71;55.07;101677.22;4930532;29;19955;-82
2022/03/12 10:54:28;;;;;;;;;;;;;;;18.49;54.01;101680.72;4990918;23;19934;-79
2022/03/12 10:56:54;;;;;;;;;;;;;;;18.36;51.39;101684.22;4956911;28;19922;-82
2022/03/12 10:59:20;;;;;;;;;;;;;;;18.26;51.26;101689.38;4985166;28;19957;-81
2022/03/12 11:01:46;;;;;;;;;;;;;;;18.17;51.30;101686.78;4983341;28;19937;-79
2022/03/12 11:04:15;;;;;;;;;;;;;;;18.10;51.39;101698.06;4962970;28;19921;-80
2022/03/12 11:06:43;;;;;;;;;;;;;;;18.00;51.74;101704.09;4978354;28;19982;-79
2022/03/12 11:09:09;;;;;;;;;;;;;;;18.00;52.67;101710.16;4962231;28;19919;-80
2022/03/12 11:11:36;;;;;;;;;;;;;;;17.96;52.04;101712.78;4946562;28;20295;-79
2022/03/12 11:14:02;;;;;;;;;;;;;;;17.95;53.25;101708.44;4946658;28;19921;-79
2022/03/12 11:16:33;;;;;;;;;;;;;;;17.92;52.23;101705.81;4946852;28;19918;-80
2022/03/12 11:19:10;;;;;;;;;;;;;;;17.91;53.48;101710.16;4962293;28;20377;-79
2022/03/12 11:21:37;;;;;;;;;;;;;;;17.89;54.44;101707.53;4978800;28;20389;-79
2022/03/12 11:24:17;;;;;;;;;;;;;;;17.92;54.02;101705.81;4964562;28;20353;-80
2022/03/12 11:26:50;;;;;;;;;;;;;;;17.85;54.33;101702.31;4967425;28;19914;-80
2022/03/12 11:29:16;;;;;;;;;;;;;;;17.91;54.57;101696.28;4965275;28;19918;-79
2022/03/12 11:31:43;;;;;;;;;;;;;;;17.87;53.06;101709.25;4965070;28;19914;-79
2022/03/12 11:34:32;;;;;;;;;;;;;;;17.86;53.89;101710.16;4965261;28;20004;-79
2022/03/12 11:36:58;;;;;;;;;;;;;;;17.84;52.55;101714.47;4964832;28;19983;-78
2022/03/12 11:39:47;;;;;;;;;;;;;;;17.85;52.97;101721.41;4964399;28;19922;-79
2022/03/12 11:42:17;;;;;;;;;;;;;;;17.87;53.35;101718.81;4973753;28;20348;-78
2022/03/12 11:44:47;;;;;;;;;;;;;;;17.93;54.10;101723.19;4979968;28;19964;-78
2022/03/12 11:47:14;;;;;;;;;;;;;;;17.92;52.82;101718.81;4963912;28;20285;-79
2022/03/12 11:49:40;;;;;;;;;;;;;;;17.93;51.98;101721.44;4980629;28;19914;-78
2022/03/12 11:52:05;;;;;;;;;;;;;;;17.91;52.18;101723.19;4979096;28;19941;-79
2022/03/12 11:54:31;;;;;;;;;;;;;;;17.92;52.62;101717.13;4961585;28;19915;-79
2022/03/12 11:56:59;;;;;;;;;;;;;;;17.89;52.27;101720.56;4961440;28;20284;-79
2022/03/12 11:59:25;;;;;;;;;;;;;;;17.89;52.43;101724.91;4964844;28;20016;-80
2022/03/12 12:02:01;;;;;;;;;;;;;;;17.93;53.16;101741.41;4962763;28;19949;-79
2022/03/12 12:04:29;;;;;;;;;;;;;;;17.95;52.73;101729.28;4961537;28;20328;-80
2022/03/12 12:06:55;;;;;;;;;;;;;;;17.97;53.84;101731.00;4962496;28;19914;-79
2022/03/12 12:09:20;;;;;;;;;;;;;;;17.96;53.98;101726.66;4961977;28;20009;-80
2022/03/12 12:11:46;;;;;;;;;;;;;;;17.96;53.12;101726.66;4946369;28;19922;-80
2022/03/12 12:14:11;;;;;;;;;;;;;;;18.00;52.79;101727.53;4981021;28;19918;-80
2022/03/12 12:16:37;;;;;;;;;;;;;;;18.05;53.45;101720.59;4964916;28;19914;-80
2022/03/12 12:19:02;;;;;;;;;;;;;;;18.05;53.85;101713.69;4951163;28;19969;-81
2022/03/12 12:21:28;;;;;;;;;;;;;;;18.06;53.81;101711.94;4987539;28;19924;-82
2022/03/12 12:23:53;;;;;;;;;;;;;;;18.08;53.01;101715.41;4976232;28;19918;-82
2022/03/12 12:26:20;;;;;;;;;;;;;;;18.05;52.91;101708.47;4979071;28;19918;-81
2022/03/12 12:28:46;;;;;;;;;;;;;;;18.09;52.52;101709.31;4956301;28;19968;-81
2022/03/12 12:31:30;;;;;;;;;;;;;;;18.13;53.21;101715.41;4995305;28;19914;-82
2022/03/12 12:33:56;;;;;;;;;;;;;;;18.15;52.79;101705.88;4971975;28;19925;-81
2022/03/12 12:36:21;;;;;;;;;;;;;;;18.16;52.64;101699.78;4971088;28;19914;-81
2022/03/12 12:39:04;;;;;;;;;;;;;;;18.14;52.29;101693.69;4973726;28;19981;-81
2022/03/12 12:41:48;;;;;;;;;;;;;;;18.13;52.24;101699.78;4982117;28;19902;-83
2022/03/12 12:44:13;;;;;;;;;;;;;;;18.12;52.55;101696.31;4979093;28;19921;-82
2022/03/12 12:46:38;;;;;;;;;;;;;;;18.14;52.92;101698.91;4983884;28;19918;-81
2022/03/12 12:49:05;;;;;;;;;;;;;;;18.13;52.45;101705.88;4981902;28;19925;-82
2022/03/12 12:51:30;;;;;;;;;;;;;;;18.14;52.95;101705.00;4973311;28;19938;-81
2022/03/12 12:54:02;;;;;;;;;;;;;;;18.15;52.76;101703.28;4987912;28;19915;-81
2022/03/12 12:56:27;;;;;;;;;;;;;;;18.14;52.26;101702.41;4971681;28;19945;-80
2022/03/12 12:58:52;;;;;;;;;;;;;;;18.18;52.43;101691.13;4972208;28;19961;-81
2022/03/12 13:01:26;;;;;;;;;;;;;;;18.20;52.37;101693.72;4969594;28;19918;-79
2022/03/12 13:03:52;;;;;;;;;;;;;;;18.20;52.45;101691.97;4985715;28;20313;-80
2022/03/12 13:06:35;;;;;;;;;;;;;;;18.24;52.10;101698.06;4989970;28;19925;-80
2022/03/12 13:09:08;;;;;;;;;;;;;;;18.28;52.54;101692.84;4987701;28;20330;-80
2022/03/12 13:11:33;;;;;;;;;;;;;;;18.32;52.37;101680.72;4983809;28;20075;-79
2022/03/12 13:14:00;;;;;;;;;;;;;;;18.30;53.02;101683.31;4971736;28;19914;-82
2022/03/12 13:16:25;;;;;;;;;;;;;;;18.31;52.90;101681.56;4986724;28;19918;-79
2022/03/12 13:18:51;;;;;;;;;;;;;;;18.34;53.58;101685.94;4988963;28;20397;-80
2022/03/12 13:21:30;;;;;;;;;;;;;;;18.41;52.94;101683.31;4962793;28;19918;-80
2022/03/12 13:23:56;;;;;;;;;;;;;;;18.32;53.17;101675.50;4989785;28;19914;-79
2022/03/12 13:26:26;;;;;;;;;;;;;;;18.23;54.78;101678.97;4967575;28;20017;-79
2022/03/12 13:28:57;;;;;;;;;;;;;;;18.18;54.03;101680.72;4966121;28;19918;-79
2022/03/12 13:31:22;;;;;;;;;;;;;;;18.11;56.87;101678.94;4964634;28;19921;-79
2022/03/12 13:33:56;;;;;;;;;;;;;;;18.09;56.34;101686.78;4982054;28;19915;-79
2022/03/12 13:36:22;;;;;;;;;;;;;;;18.08;55.30;101684.16;4964889;28;19921;-79
2022/03/12 13:38:48;;;;;;;;;;;;;;;18.06;56.92;101683.28;4963899;28;19969;-79
2022/03/12 13:41:14;;;;;;;;;;;;;;;18.04;57.46;101685.00;4948630;28;19918;-79
2022/03/12 13:43:40;;;;;;;;;;;;;;;18.03;55.43;101686.75;4964041;28;20280;-79
2022/03/12 13:46:06;;;;;;;;;;;;;;;18.00;55.86;101686.72;4963454;28;19918;-79
2022/03/12 13:48:31;;;;;;;;;;;;;;;17.99;57.98;101685.00;4947231;28;20489;-79
2022/03/12 13:50:56;;;;;;;;;;;;;;;18.00;58.42;101698.88;4968231;28;19953;-80
2022/03/12 13:53:27;;;;;;;;;;;;;;;17.99;57.60;101694.56;4974753;28;19918;-79
2022/03/12 13:56:00;;;;;;;;;;;;;;;17.99;56.48;101684.16;4974527;28;19985;-80
2022/03/12 13:58:26;;;;;;;;;;;;;;;18.03;56.92;101684.16;4967455;28;19941;-79
2022/03/12 14:00:51;;;;;;;;;;;;;;;18.00;58.80;101684.13;4969034;28;19918;-80
2022/03/12 14:03:18;;;;;;;;;;;;;;;17.97;59.03;101694.56;4960572;28;19958;-79
2022/03/12 14:05:44;;;;;;;;;;;;;;;18.01;59.44;101687.63;4975430;28;19914;-79
2022/03/12 14:08:15;;;;;;;;;;;;;;;18.00;58.84;101686.72;4967714;28;20357;-79
2022/03/12 14:10:43;;;;;;;;;;;;;;;18.01;58.44;101695.44;4968027;28;20289;-79
2022/03/12 14:13:09;;;;;;;;;;;;;;;17.99;59.41;101698.03;4965738;28;19973;-79
2022/03/12 14:15:35;;;;;;;;;;;;;;;18.00;57.78;101696.28;4967366;28;19957;-79
2022/03/12 14:18:05;;;;;;;;;;;;;;;17.99;58.75;101694.56;4951907;28;19922;-79
2022/03/12 14:20:39;;;;;;;;;;;;;;;17.97;59.12;101688.47;4984486;28;19914;-79
2022/03/12 14:23:05;;;;;;;;;;;;;;;17.97;58.76;101691.09;4984637;28;19982;-79
2022/03/12 14:25:31;;;;;;;;;;;;;;;17.96;59.43;101694.53;4971101;28;19910;-79
2022/03/12 14:27:57;;;;;;;;;;;;;;;17.94;59.37;101691.06;4969439;28;19914;-79
2022/03/12 14:30:24;;;;;;;;;;;;;;;17.91;59.23;101685.84;4972411;28;19914;-79
2022/03/12 14:32:50;;;;;;;;;;;;;;;17.92;59.30;101688.47;4956030;28;20289;-79
2022/03/12 14:35:16;;;;;;;;;;;;;;;17.92;58.27;101685.88;4967069;28;20365;-80
2022/03/12 14:37:43;;;;;;;;;;;;;;;17.92;59.29;101678.06;4950499;28;20017;-79
2022/03/12 14:40:09;;;;;;;;;;;;;;;17.93;59.54;101671.09;4966803;28;19922;-80
2022/03/12 14:42:35;;;;;;;;;;;;;;;17.92;60.65;101666.75;4950603;28;19922;-79
2022/03/12 14:45:01;;;;;;;;;;;;;;;17.91;59.37;101675.44;4966093;28;20380;-79
2022/03/12 14:47:28;;;;;;;;;;;;;;;17.91;60.18;101670.22;4950106;28;19926;-79
2022/03/12 14:49:54;;;;;;;;;;;;;;;17.89;59.56;101678.03;4966471;28;19914;-79
2022/03/12 14:52:21;;;;;;;;;;;;;;;17.88;59.93;101668.50;4965502;28;20399;-79
2022/03/12 14:54:48;;;;;;;;;;;;;;;17.86;60.70;101667.63;4966099;28;19933;-79
2022/03/12 14:57:14;;;;;;;;;;;;;;;17.86;59.88;101672.81;4982579;28;19922;-79
2022/03/12 14:59:40;;;;;;;;;;;;;;;17.86;60.12;101672.81;4965048;28;19953;-79
2022/03/12 15:02:08;;;;;;;;;;;;;;;17.86;60.26;101672.81;4965061;28;19914;-79
2022/03/12 15:04:34;;;;;;;;;;;;;;;17.87;60.59;101674.56;4964573;28;19921;-79
2022/03/12 15:07:06;;;;;;;;;;;;;;;17.86;59.82;101673.69;4949255;28;20387;-79
2022/03/12 15:09:32;;;;;;;;;;;;;;;17.87;61.08;101672.81;4964469;28;19914;-79
2022/03/12 15:12:17;;;;;;;;;;;;;;;17.87;60.16;101666.75;4950043;28;19917;-80